sensor_id;sensor_type;location;lat;lon;timestamp;pressure;altitude;pressure_sealevel;temperature;humidity
44309;BME280;30022;55.846;37.340;2023-02-05T00:00:51;48206.28;;;-143.51;100.00
44309;BME280;30022;55.846;37.340;2023-02-05T00:03:17;48107.50;;;-143.51;100.00
44309;BME280;30022;55.846;37.340;2023-02-05T00:05:42;47992.91;;;-143.51;100.00
44309;BME280;30022;55.846;37.340;2023-02-05T00:08:08;47949.47;;;-143.51;100.00
44309;BME280;30022;55.846;37.340;2023-02-05T00:10:33;47890.19;;;-143.51;100.00
44309;BME280;30022;55.846;37.340;2023-02-05T00:12:59;47967.25;;;-143.51;100.00
44309;BME280;30022;55.846;37.340;2023-02-05T00:15:25;47965.25;;;-143.51;100.00
44309;BME280;30022;55.846;37.340;2023-02-05T00:17:50;47894.16;;;-143.51;100.00
44309;BME280;30022;55.846;37.340;2023-02-05T00:20:16;47937.59;;;-143.51;100.00
44309;BME280;30022;55.846;37.340;2023-02-05T00:22:41;47894.16;;;-143.51;100.00
44309;BME280;30022;55.846;37.340;2023-02-05T00:25:07;47955.38;;;-143.51;100.00
44309;BME280;30022;55.846;37.340;2023-02-05T00:27:33;47868.47;;;-143.51;100.00
44309;BME280;30022;55.846;37.340;2023-02-05T00:29:58;47876.38;;;-143.51;100.00
44309;BME280;30022;55.846;37.340;2023-02-05T00:32:24;47911.94;;;-143.51;100.00
44309;BME280;30022;55.846;37.340;2023-02-05T00:34:49;47852.66;;;-143.51;100.00
44309;BME280;30022;55.846;37.340;2023-02-05T00:37:15;47860.56;;;-143.51;100.00
44309;BME280;30022;55.846;37.340;2023-02-05T00:39:41;47884.28;;;-143.51;100.00
44309;BME280;30022;55.846;37.340;2023-02-05T00:42:06;47779.56;;;-143.51;100.00
44309;BME280;30022;55.846;37.340;2023-02-05T00:44:33;47787.47;;;-143.51;100.00
44309;BME280;30022;55.846;37.340;2023-02-05T00:46:58;47787.47;;;-143.51;100.00
44309;BME280;30022;55.846;37.340;2023-02-05T00:49:24;47732.16;;;-143.51;100.00
44309;BME280;30022;55.846;37.340;2023-02-05T00:51:50;47674.88;;;-143.51;100.00
44309;BME280;30022;55.846;37.340;2023-02-05T00:54:15;47753.88;;;-143.51;100.00
44309;BME280;30022;55.846;37.340;2023-02-05T00:56:41;47773.66;;;-143.51;100.00
44309;BME280;30022;55.846;37.340;2023-02-05T00:59:06;47811.19;;;-143.51;100.00
44309;BME280;30022;55.846;37.340;2023-02-05T01:01:32;47826.97;;;-143.51;100.00
44309;BME280;30022;55.846;37.340;2023-02-05T01:03:58;47787.47;;;-143.51;100.00
44309;BME280;30022;55.846;37.340;2023-02-05T01:06:23;47793.41;;;-143.51;100.00
44309;BME280;30022;55.846;37.340;2023-02-05T01:08:49;47838.84;;;-143.51;100.00
44309;BME280;30022;55.846;37.340;2023-02-05T01:11:14;47700.56;;;-143.51;100.00
44309;BME280;30022;55.846;37.340;2023-02-05T01:13:40;47708.44;;;-143.51;100.00
44309;BME280;30022;55.846;37.340;2023-02-05T01:16:06;47728.22;;;-143.51;100.00
44309;BME280;30022;55.846;37.340;2023-02-05T01:18:32;47665.00;;;-143.51;100.00
44309;BME280;30022;55.846;37.340;2023-02-05T01:20:57;47645.25;;;-143.51;100.00
44309;BME280;30022;55.846;37.340;2023-02-05T01:23:23;47678.81;;;-143.51;100.00
44309;BME280;30022;55.846;37.340;2023-02-05T01:25:49;47633.38;;;-143.51;100.00
44309;BME280;30022;55.846;37.340;2023-02-05T01:28:14;47617.59;;;-143.51;100.00
44309;BME280;30022;55.846;37.340;2023-02-05T01:30:40;47661.03;;;-143.51;100.00
44309;BME280;30022;55.846;37.340;2023-02-05T01:33:06;47585.97;;;-143.51;100.00
44309;BME280;30022;55.846;37.340;2023-02-05T01:35:31;47619.56;;;-143.51;100.00
44309;BME280;30022;55.846;37.340;2023-02-05T01:37:57;47582.03;;;-143.51;100.00
44309;BME280;30022;55.846;37.340;2023-02-05T01:40:23;47570.19;;;-143.51;100.00
44309;BME280;30022;55.846;37.340;2023-02-05T01:42:48;47637.34;;;-143.51;100.00
44309;BME280;30022;55.846;37.340;2023-02-05T01:47:46;47698.56;;;-143.51;100.00
44309;BME280;30022;55.846;37.340;2023-02-05T01:50:11;47672.91;;;-143.51;100.00
44309;BME280;30022;55.846;37.340;2023-02-05T01:52:37;47603.75;;;-143.51;100.00
44309;BME280;30022;55.846;37.340;2023-02-05T01:55:04;47641.28;;;-143.51;100.00
44309;BME280;30022;55.846;37.340;2023-02-05T01:57:30;47698.56;;;-143.51;100.00
44309;BME280;30022;55.846;37.340;2023-02-05T01:59:56;47668.94;;;-143.51;100.00
44309;BME280;30022;55.846;37.340;2023-02-05T02:02:21;47584.00;;;-143.51;100.00
44309;BME280;30022;55.846;37.340;2023-02-05T02:04:57;47611.66;;;-143.51;100.00
44309;BME280;30022;55.846;37.340;2023-02-05T02:07:25;47615.63;;;-143.51;100.00
44309;BME280;30022;55.846;37.340;2023-02-05T02:09:50;47734.13;;;-143.51;100.00
44309;BME280;30022;55.846;37.340;2023-02-05T02:12:18;47627.47;;;-143.51;100.00
44309;BME280;30022;55.846;37.340;2023-02-05T02:14:46;47635.38;;;-143.51;100.00
44309;BME280;30022;55.846;37.340;2023-02-05T02:17:32;47668.94;;;-143.51;100.00
44309;BME280;30022;55.846;37.340;2023-02-05T02:20:04;47649.19;;;-143.51;100.00
44309;BME280;30022;55.846;37.340;2023-02-05T02:28:06;47649.19;;;-143.51;100.00
44309;BME280;30022;55.846;37.340;2023-02-05T02:30:36;47627.47;;;-143.51;100.00
44309;BME280;30022;55.846;37.340;2023-02-05T02:33:26;47574.13;;;-143.51;100.00
44309;BME280;30022;55.846;37.340;2023-02-05T02:35:53;47653.16;;;-143.51;100.00
44309;BME280;30022;55.846;37.340;2023-02-05T02:40:53;47643.28;;;-143.51;100.00
44309;BME280;30022;55.846;37.340;2023-02-05T02:43:31;47599.81;;;-143.51;100.00
44309;BME280;30022;55.846;37.340;2023-02-05T02:46:05;47582.03;;;-143.51;100.00
44309;BME280;30022;55.846;37.340;2023-02-05T02:48:33;47516.84;;;-143.51;100.00
44309;BME280;30022;55.846;37.340;2023-02-05T02:51:00;47487.22;;;-143.51;100.00
44309;BME280;30022;55.846;37.340;2023-02-05T02:53:28;47445.75;;;-143.51;100.00
44309;BME280;30022;55.846;37.340;2023-02-05T02:55:55;47485.25;;;-143.51;100.00
44309;BME280;30022;55.846;37.340;2023-02-05T02:58:33;47437.84;;;-143.51;100.00
44309;BME280;30022;55.846;37.340;2023-02-05T03:01:00;47445.75;;;-143.51;100.00
44309;BME280;30022;55.846;37.340;2023-02-05T03:03:28;47461.53;;;-143.51;100.00
44309;BME280;30022;55.846;37.340;2023-02-05T03:05:55;47495.13;;;-143.51;100.00
44309;BME280;30022;55.846;37.340;2023-02-05T03:08:24;47463.50;;;-143.51;100.00
44309;BME280;30022;55.846;37.340;2023-02-05T03:13:17;47424.00;;;-143.51;100.00
44309;BME280;30022;55.846;37.340;2023-02-05T03:15:49;47384.50;;;-143.51;100.00
44309;BME280;30022;55.846;37.340;2023-02-05T03:18:14;47414.13;;;-143.51;100.00
44309;BME280;30022;55.846;37.340;2023-02-05T03:20:44;47420.06;;;-143.51;100.00
44309;BME280;30022;55.846;37.340;2023-02-05T03:23:12;47346.97;;;-143.51;100.00
44309;BME280;30022;55.846;37.340;2023-02-05T03:25:38;47285.75;;;-143.51;100.00
44309;BME280;30022;55.846;37.340;2023-02-05T03:28:07;47325.25;;;-143.51;100.00
44309;BME280;30022;55.846;37.340;2023-02-05T03:30:37;47301.53;;;-143.51;100.00
44309;BME280;30022;55.846;37.340;2023-02-05T03:35:40;47325.25;;;-143.51;100.00
44309;BME280;30022;55.846;37.340;2023-02-05T03:38:19;47285.75;;;-143.51;100.00
44309;BME280;30022;55.846;37.340;2023-02-05T03:41:14;47275.88;;;-143.51;100.00
44309;BME280;30022;55.846;37.340;2023-02-05T03:43:46;47246.25;;;-143.51;100.00
44309;BME280;30022;55.846;37.340;2023-02-05T03:51:26;47281.78;;;-143.51;100.00
44309;BME280;30022;55.846;37.340;2023-02-05T03:59:25;47234.38;;;-143.51;100.00
44309;BME280;30022;55.846;37.340;2023-02-05T04:01:52;47250.19;;;-143.51;100.00
44309;BME280;30022;55.846;37.340;2023-02-05T04:04:18;47218.59;;;-143.51;100.00
44309;BME280;30022;55.846;37.340;2023-02-05T04:06:45;47238.34;;;-143.51;100.00
44309;BME280;30022;55.846;37.340;2023-02-05T04:09:11;47250.19;;;-143.51;100.00
44309;BME280;30022;55.846;37.340;2023-02-05T04:11:38;47238.34;;;-143.51;100.00
44309;BME280;30022;55.846;37.340;2023-02-05T04:14:04;47179.09;;;-143.51;100.00
44309;BME280;30022;55.846;37.340;2023-02-05T04:16:29;47210.69;;;-143.51;100.00
44309;BME280;30022;55.846;37.340;2023-02-05T04:18:56;47179.09;;;-143.51;100.00
44309;BME280;30022;55.846;37.340;2023-02-05T04:21:23;47196.88;;;-143.51;100.00
44309;BME280;30022;55.846;37.340;2023-02-05T04:23:48;47198.84;;;-143.51;100.00
44309;BME280;30022;55.846;37.340;2023-02-05T04:26:14;47157.34;;;-143.51;100.00
44309;BME280;30022;55.846;37.340;2023-02-05T04:28:47;47129.72;;;-143.51;100.00
44309;BME280;30022;55.846;37.340;2023-02-05T04:31:13;47153.41;;;-143.51;100.00
44309;BME280;30022;55.846;37.340;2023-02-05T04:33:40;47169.22;;;-143.51;100.00
44309;BME280;30022;55.846;37.340;2023-02-05T04:36:08;47127.72;;;-143.51;100.00
44309;BME280;30022;55.846;37.340;2023-02-05T04:38:33;47161.31;;;-143.51;100.00
44309;BME280;30022;55.846;37.340;2023-02-05T04:40:59;47139.59;;;-143.51;100.00
44309;BME280;30022;55.846;37.340;2023-02-05T04:43:25;47161.31;;;-143.51;100.00
44309;BME280;30022;55.846;37.340;2023-02-05T04:45:50;47135.63;;;-143.51;100.00
44309;BME280;30022;55.846;37.340;2023-02-05T04:48:16;47159.34;;;-143.51;100.00
44309;BME280;30022;55.846;37.340;2023-02-05T04:50:42;47173.16;;;-143.51;100.00
44309;BME280;30022;55.846;37.340;2023-02-05T04:53:07;47171.19;;;-143.51;100.00
44309;BME280;30022;55.846;37.340;2023-02-05T04:55:33;47141.56;;;-143.51;100.00
44309;BME280;30022;55.846;37.340;2023-02-05T04:57:58;47151.44;;;-143.51;100.00
44309;BME280;30022;55.846;37.340;2023-02-05T05:00:24;47171.19;;;-143.51;100.00
44309;BME280;30022;55.846;37.340;2023-02-05T05:02:50;47167.25;;;-143.51;100.00
44309;BME280;30022;55.846;37.340;2023-02-05T05:05:16;47171.19;;;-143.51;100.00
44309;BME280;30022;55.846;37.340;2023-02-05T05:07:42;47167.25;;;-143.51;100.00
44309;BME280;30022;55.846;37.340;2023-02-05T05:10:08;47185.00;;;-143.51;100.00
44309;BME280;30022;55.846;37.340;2023-02-05T05:12:34;47159.34;;;-143.51;100.00
44309;BME280;30022;55.846;37.340;2023-02-05T05:15:00;47190.94;;;-143.51;100.00
44309;BME280;30022;55.846;37.340;2023-02-05T05:17:26;47183.03;;;-143.51;100.00
44309;BME280;30022;55.846;37.340;2023-02-05T05:19:51;47181.06;;;-143.51;100.00
44309;BME280;30022;55.846;37.340;2023-02-05T05:22:17;47157.34;;;-143.51;100.00
44309;BME280;30022;55.846;37.340;2023-02-05T05:24:43;47163.28;;;-143.51;100.00
44309;BME280;30022;55.846;37.340;2023-02-05T05:27:08;47167.25;;;-143.51;100.00
44309;BME280;30022;55.846;37.340;2023-02-05T05:29:34;47141.56;;;-143.51;100.00
44309;BME280;30022;55.846;37.340;2023-02-05T05:31:59;47139.59;;;-143.51;100.00
44309;BME280;30022;55.846;37.340;2023-02-05T05:34:25;47163.28;;;-143.51;100.00
44309;BME280;30022;55.846;37.340;2023-02-05T05:36:51;47159.34;;;-143.51;100.00
44309;BME280;30022;55.846;37.340;2023-02-05T05:39:17;47165.25;;;-143.51;100.00
44309;BME280;30022;55.846;37.340;2023-02-05T05:42:03;47169.22;;;-143.51;100.00
44309;BME280;30022;55.846;37.340;2023-02-05T05:44:47;47115.88;;;-143.51;100.00
44309;BME280;30022;55.846;37.340;2023-02-05T05:47:19;47151.44;;;-143.51;100.00
44309;BME280;30022;55.846;37.340;2023-02-05T05:49:45;47125.75;;;-143.51;100.00
44309;BME280;30022;55.846;37.340;2023-02-05T05:52:10;47107.97;;;-143.51;100.00
44309;BME280;30022;55.846;37.340;2023-02-05T05:54:36;47119.84;;;-143.51;100.00
44309;BME280;30022;55.846;37.340;2023-02-05T05:57:02;47129.72;;;-143.51;100.00
44309;BME280;30022;55.846;37.340;2023-02-05T05:59:28;47127.72;;;-143.51;100.00
44309;BME280;30022;55.846;37.340;2023-02-05T06:01:53;47096.13;;;-143.51;100.00
44309;BME280;30022;55.846;37.340;2023-02-05T06:04:19;47102.06;;;-143.51;100.00
44309;BME280;30022;55.846;37.340;2023-02-05T06:06:44;47107.97;;;-143.51;100.00
44309;BME280;30022;55.846;37.340;2023-02-05T06:09:10;47113.91;;;-143.51;100.00
44309;BME280;30022;55.846;37.340;2023-02-05T06:11:35;47119.84;;;-143.51;100.00
44309;BME280;30022;55.846;37.340;2023-02-05T06:14:01;47109.97;;;-143.51;100.00
44309;BME280;30022;55.846;37.340;2023-02-05T06:16:27;47100.09;;;-143.51;100.00
44309;BME280;30022;55.846;37.340;2023-02-05T06:18:53;47127.72;;;-143.51;100.00
44309;BME280;30022;55.846;37.340;2023-02-05T06:21:19;47117.84;;;-143.51;100.00
44309;BME280;30022;55.846;37.340;2023-02-05T06:23:45;47129.72;;;-143.51;100.00
44309;BME280;30022;55.846;37.340;2023-02-05T06:26:10;47125.75;;;-143.51;100.00
44309;BME280;30022;55.846;37.340;2023-02-05T06:28:36;47129.72;;;-143.51;100.00
44309;BME280;30022;55.846;37.340;2023-02-05T06:31:01;47131.69;;;-143.51;100.00
44309;BME280;30022;55.846;37.340;2023-02-05T06:33:27;47121.81;;;-143.51;100.00
44309;BME280;30022;55.846;37.340;2023-02-05T06:35:53;47106.00;;;-143.51;100.00
44309;BME280;30022;55.846;37.340;2023-02-05T06:38:18;47131.69;;;-143.51;100.00
44309;BME280;30022;55.846;37.340;2023-02-05T06:40:44;47123.78;;;-143.51;100.00
44309;BME280;30022;55.846;37.340;2023-02-05T06:43:10;47167.25;;;-143.51;100.00
44309;BME280;30022;55.846;37.340;2023-02-05T06:45:36;47151.44;;;-143.51;100.00
44309;BME280;30022;55.846;37.340;2023-02-05T06:48:02;47129.72;;;-143.51;100.00
44309;BME280;30022;55.846;37.340;2023-02-05T06:50:27;47127.72;;;-143.51;100.00
44309;BME280;30022;55.846;37.340;2023-02-05T06:52:53;47115.88;;;-143.51;100.00
44309;BME280;30022;55.846;37.340;2023-02-05T06:55:19;47163.28;;;-143.51;100.00
44309;BME280;30022;55.846;37.340;2023-02-05T06:57:44;47090.22;;;-143.51;100.00
44309;BME280;30022;55.846;37.340;2023-02-05T07:00:10;47107.97;;;-143.51;100.00
44309;BME280;30022;55.846;37.340;2023-02-05T07:02:36;47104.03;;;-143.51;100.00
44309;BME280;30022;55.846;37.340;2023-02-05T07:05:02;47100.09;;;-143.51;100.00
44309;BME280;30022;55.846;37.340;2023-02-05T07:07:31;47068.47;;;-143.51;100.00
44309;BME280;30022;55.846;37.340;2023-02-05T07:09:58;47088.22;;;-143.51;100.00
44309;BME280;30022;55.846;37.340;2023-02-05T07:12:23;47106.00;;;-143.51;100.00
44309;BME280;30022;55.846;37.340;2023-02-05T07:14:49;47106.00;;;-143.51;100.00
44309;BME280;30022;55.846;37.340;2023-02-05T07:17:15;47104.03;;;-143.51;100.00
44309;BME280;30022;55.846;37.340;2023-02-05T07:19:42;47115.88;;;-143.51;100.00
44309;BME280;30022;55.846;37.340;2023-02-05T07:22:07;47060.59;;;-143.51;100.00
44309;BME280;30022;55.846;37.340;2023-02-05T07:24:33;47042.81;;;-143.51;100.00
44309;BME280;30022;55.846;37.340;2023-02-05T07:26:59;47074.41;;;-143.51;100.00
44309;BME280;30022;55.846;37.340;2023-02-05T07:29:25;47104.03;;;-143.51;100.00
44309;BME280;30022;55.846;37.340;2023-02-05T07:31:51;47090.22;;;-143.51;100.00
44309;BME280;30022;55.846;37.340;2023-02-05T07:34:17;47076.38;;;-143.51;100.00
44309;BME280;30022;55.846;37.340;2023-02-05T07:36:42;47056.63;;;-143.51;100.00
44309;BME280;30022;55.846;37.340;2023-02-05T07:39:08;47104.03;;;-143.51;100.00
44309;BME280;30022;55.846;37.340;2023-02-05T07:41:34;47096.13;;;-143.51;100.00
44309;BME280;30022;55.846;37.340;2023-02-05T07:43:59;47082.31;;;-143.51;100.00
44309;BME280;30022;55.846;37.340;2023-02-05T07:46:25;47094.16;;;-143.51;100.00
44309;BME280;30022;55.846;37.340;2023-02-05T07:48:50;47149.47;;;-143.51;100.00
44309;BME280;30022;55.846;37.340;2023-02-05T07:51:17;47066.50;;;-143.51;100.00
44309;BME280;30022;55.846;37.340;2023-02-05T07:53:43;47030.97;;;-143.51;100.00
44309;BME280;30022;55.846;37.340;2023-02-05T07:56:08;47028.97;;;-143.51;100.00
44309;BME280;30022;55.846;37.340;2023-02-05T07:58:34;47030.97;;;-143.51;100.00
44309;BME280;30022;55.846;37.340;2023-02-05T08:01:00;47030.97;;;-143.51;100.00
44309;BME280;30022;55.846;37.340;2023-02-05T08:03:26;47009.22;;;-143.51;100.00
44309;BME280;30022;55.846;37.340;2023-02-05T08:05:52;47015.16;;;-143.51;100.00
44309;BME280;30022;55.846;37.340;2023-02-05T08:08:18;47027.00;;;-143.51;100.00
44309;BME280;30022;55.846;37.340;2023-02-05T08:10:43;47013.19;;;-143.51;100.00
44309;BME280;30022;55.846;37.340;2023-02-05T08:13:09;47023.06;;;-143.51;100.00
44309;BME280;30022;55.846;37.340;2023-02-05T08:15:36;46999.34;;;-143.51;100.00
44309;BME280;30022;55.846;37.340;2023-02-05T08:18:02;47025.03;;;-143.51;100.00
44309;BME280;30022;55.846;37.340;2023-02-05T08:20:28;47003.31;;;-143.51;100.00
44309;BME280;30022;55.846;37.340;2023-02-05T08:22:53;47015.16;;;-143.51;100.00
44309;BME280;30022;55.846;37.340;2023-02-05T08:25:19;47040.84;;;-143.51;100.00
44309;BME280;30022;55.846;37.340;2023-02-05T08:27:44;47019.09;;;-143.51;100.00
44309;BME280;30022;55.846;37.340;2023-02-05T08:30:11;46965.78;;;-143.51;100.00
44309;BME280;30022;55.846;37.340;2023-02-05T08:32:37;47009.22;;;-143.51;100.00
44309;BME280;30022;55.846;37.340;2023-02-05T08:35:03;46989.47;;;-143.51;100.00
44309;BME280;30022;55.846;37.340;2023-02-05T08:37:29;47003.31;;;-143.51;100.00
44309;BME280;30022;55.846;37.340;2023-02-05T08:39:54;47005.28;;;-143.51;100.00
44309;BME280;30022;55.846;37.340;2023-02-05T08:42:20;47013.19;;;-143.51;100.00
44309;BME280;30022;55.846;37.340;2023-02-05T08:44:46;47009.22;;;-143.51;100.00
44309;BME280;30022;55.846;37.340;2023-02-05T08:47:12;46993.44;;;-143.51;100.00
44309;BME280;30022;55.846;37.340;2023-02-05T08:49:38;47025.03;;;-143.51;100.00
44309;BME280;30022;55.846;37.340;2023-02-05T08:52:04;47009.22;;;-143.51;100.00
44309;BME280;30022;55.846;37.340;2023-02-05T08:54:29;47019.09;;;-143.51;100.00
44309;BME280;30022;55.846;37.340;2023-02-05T08:56:55;47034.91;;;-143.51;100.00
44309;BME280;30022;55.846;37.340;2023-02-05T08:59:20;47048.72;;;-143.51;100.00
44309;BME280;30022;55.846;37.340;2023-02-05T09:01:46;47050.72;;;-143.51;100.00
44309;BME280;30022;55.846;37.340;2023-02-05T09:04:16;47052.69;;;-143.51;100.00
44309;BME280;30022;55.846;37.340;2023-02-05T09:06:42;47064.53;;;-143.51;100.00
44309;BME280;30022;55.846;37.340;2023-02-05T09:09:08;47076.38;;;-143.51;100.00
44309;BME280;30022;55.846;37.340;2023-02-05T09:11:34;47052.69;;;-143.51;100.00
44309;BME280;30022;55.846;37.340;2023-02-05T09:14:00;47025.03;;;-143.51;100.00
44309;BME280;30022;55.846;37.340;2023-02-05T09:16:26;47040.84;;;-143.51;100.00
44309;BME280;30022;55.846;37.340;2023-02-05T09:18:55;46993.44;;;-143.51;100.00
44309;BME280;30022;55.846;37.340;2023-02-05T09:21:21;46991.47;;;-143.51;100.00
44309;BME280;30022;55.846;37.340;2023-02-05T09:23:48;47019.09;;;-143.51;100.00
44309;BME280;30022;55.846;37.340;2023-02-05T09:26:13;47013.19;;;-143.51;100.00
44309;BME280;30022;55.846;37.340;2023-02-05T09:28:39;46993.44;;;-143.51;100.00
44309;BME280;30022;55.846;37.340;2023-02-05T09:31:05;47021.09;;;-143.51;100.00
44309;BME280;30022;55.846;37.340;2023-02-05T09:33:32;46979.59;;;-143.51;100.00
44309;BME280;30022;55.846;37.340;2023-02-05T09:35:57;47052.69;;;-143.51;100.00
44309;BME280;30022;55.846;37.340;2023-02-05T09:38:23;47038.84;;;-143.51;100.00
44309;BME280;30022;55.846;37.340;2023-02-05T09:43:19;47076.38;;;-143.51;100.00
44309;BME280;30022;55.846;37.340;2023-02-05T09:45:50;47021.09;;;-143.51;100.00
44309;BME280;30022;55.846;37.340;2023-02-05T09:50:52;46989.47;;;-143.51;100.00
44309;BME280;30022;55.846;37.340;2023-02-05T09:53:19;47001.34;;;-143.51;100.00
44309;BME280;30022;55.846;37.340;2023-02-05T09:55:45;47017.13;;;-143.51;100.00
44309;BME280;30022;55.846;37.340;2023-02-05T09:58:22;46985.53;;;-143.51;100.00
44309;BME280;30022;55.846;37.340;2023-02-05T10:00:53;46973.69;;;-143.51;100.00
44309;BME280;30022;55.846;37.340;2023-02-05T10:05:46;47036.88;;;-143.51;100.00
44309;BME280;30022;55.846;37.340;2023-02-05T10:10:47;47027.00;;;-143.51;100.00
44309;BME280;30022;55.846;37.340;2023-02-05T10:26:48;47019.09;;;-143.51;100.00
44309;BME280;30022;55.846;37.340;2023-02-05T10:32:21;47001.34;;;-143.51;100.00
44309;BME280;30022;55.846;37.340;2023-02-05T10:34:56;47028.97;;;-143.51;100.00
44309;BME280;30022;55.846;37.340;2023-02-05T10:37:32;46993.44;;;-143.51;100.00
44309;BME280;30022;55.846;37.340;2023-02-05T10:39:59;46989.47;;;-143.51;100.00
44309;BME280;30022;55.846;37.340;2023-02-05T10:42:34;46983.56;;;-143.51;100.00
44309;BME280;30022;55.846;37.340;2023-02-05T10:47:39;46965.78;;;-143.51;100.00
44309;BME280;30022;55.846;37.340;2023-02-05T10:50:27;46918.38;;;-143.51;100.00
44309;BME280;30022;55.846;37.340;2023-02-05T10:52:55;46906.53;;;-143.51;100.00
44309;BME280;30022;55.846;37.340;2023-02-05T10:55:20;46957.88;;;-143.51;100.00
44309;BME280;30022;55.846;37.340;2023-02-05T10:57:46;46971.72;;;-143.51;100.00
44309;BME280;30022;55.846;37.340;2023-02-05T11:00:14;46955.91;;;-143.51;100.00
44309;BME280;30022;55.846;37.340;2023-02-05T11:02:41;46965.78;;;-143.51;100.00
44309;BME280;30022;55.846;37.340;2023-02-05T11:07:52;46946.03;;;-143.51;100.00
44309;BME280;30022;55.846;37.340;2023-02-05T11:10:23;46971.72;;;-143.51;100.00
44309;BME280;30022;55.846;37.340;2023-02-05T11:13:02;47019.09;;;-143.51;100.00
44309;BME280;30022;55.846;37.340;2023-02-05T11:15:30;46949.97;;;-143.51;100.00
44309;BME280;30022;55.846;37.340;2023-02-05T11:20:27;46934.19;;;-143.51;100.00
44309;BME280;30022;55.846;37.340;2023-02-05T11:25:37;46926.28;;;-143.51;100.00
44309;BME280;30022;55.846;37.340;2023-02-05T11:28:17;46930.22;;;-143.51;100.00
44309;BME280;30022;55.846;37.340;2023-02-05T11:30:44;46953.94;;;-143.51;100.00
44309;BME280;30022;55.846;37.340;2023-02-05T11:35:52;46967.75;;;-143.51;100.00
44309;BME280;30022;55.846;37.340;2023-02-05T11:40:54;46946.03;;;-143.51;100.00
44309;BME280;30022;55.846;37.340;2023-02-05T11:43:31;47007.25;;;-143.51;100.00
44309;BME280;30022;55.846;37.340;2023-02-05T11:45:58;46979.59;;;-143.51;100.00
44309;BME280;30022;55.846;37.340;2023-02-05T11:50:56;46965.78;;;-143.51;100.00
44309;BME280;30022;55.846;37.340;2023-02-05T11:53:21;47015.16;;;-143.51;100.00
44309;BME280;30022;55.846;37.340;2023-02-05T11:56:09;47005.28;;;-143.51;100.00
44309;BME280;30022;55.846;37.340;2023-02-05T11:58:37;46983.56;;;-143.51;100.00
44309;BME280;30022;55.846;37.340;2023-02-05T12:01:04;46948.00;;;-143.51;100.00
44309;BME280;30022;55.846;37.340;2023-02-05T12:03:31;46983.56;;;-143.51;100.00
44309;BME280;30022;55.846;37.340;2023-02-05T12:08:49;46953.94;;;-143.51;100.00
44309;BME280;30022;55.846;37.340;2023-02-05T12:21:29;47007.25;;;-143.51;100.00
44309;BME280;30022;55.846;37.340;2023-02-05T12:24:00;46983.56;;;-143.51;100.00
44309;BME280;30022;55.846;37.340;2023-02-05T12:26:35;47048.72;;;-143.51;100.00
44309;BME280;30022;55.846;37.340;2023-02-05T12:29:06;47001.34;;;-143.51;100.00
44309;BME280;30022;55.846;37.340;2023-02-05T12:31:49;46999.34;;;-143.51;100.00
44309;BME280;30022;55.846;37.340;2023-02-05T12:37:07;47009.22;;;-143.51;100.00
44309;BME280;30022;55.846;37.340;2023-02-05T12:39:49;47030.97;;;-143.51;100.00
44309;BME280;30022;55.846;37.340;2023-02-05T12:47:22;46989.47;;;-143.51;100.00
44309;BME280;30022;55.846;37.340;2023-02-05T12:50:25;46989.47;;;-143.51;100.00
44309;BME280;30022;55.846;37.340;2023-02-05T12:52:52;47021.09;;;-143.51;100.00
44309;BME280;30022;55.846;37.340;2023-02-05T12:55:33;46995.41;;;-143.51;100.00
44309;BME280;30022;55.846;37.340;2023-02-05T12:58:06;47013.19;;;-143.51;100.00
44309;BME280;30022;55.846;37.340;2023-02-05T13:00:39;46977.63;;;-143.51;100.00
44309;BME280;30022;55.846;37.340;2023-02-05T13:10:50;47052.69;;;-143.51;100.00
44309;BME280;30022;55.846;37.340;2023-02-05T13:13:22;47076.38;;;-143.51;100.00
44309;BME280;30022;55.846;37.340;2023-02-05T13:15:51;47030.97;;;-143.51;100.00
44309;BME280;30022;55.846;37.340;2023-02-05T13:18:23;47050.72;;;-143.51;100.00
44309;BME280;30022;55.846;37.340;2023-02-05T13:20:55;47106.00;;;-143.51;100.00
44309;BME280;30022;55.846;37.340;2023-02-05T13:23:40;47104.03;;;-143.51;100.00
44309;BME280;30022;55.846;37.340;2023-02-05T13:26:31;47078.34;;;-143.51;100.00
44309;BME280;30022;55.846;37.340;2023-02-05T13:29:18;47056.63;;;-143.51;100.00
44309;BME280;30022;55.846;37.340;2023-02-05T13:32:02;47001.34;;;-143.51;100.00
44309;BME280;30022;55.846;37.340;2023-02-05T13:34:29;47068.47;;;-143.51;100.00
44309;BME280;30022;55.846;37.340;2023-02-05T13:50:37;47042.81;;;-143.51;100.00
44309;BME280;30022;55.846;37.340;2023-02-05T14:06:10;47034.91;;;-143.51;100.00
44309;BME280;30022;55.846;37.340;2023-02-05T14:08:37;46997.38;;;-143.51;100.00
44309;BME280;30022;55.846;37.340;2023-02-05T14:11:03;46995.41;;;-143.51;100.00
44309;BME280;30022;55.846;37.340;2023-02-05T14:13:30;46985.53;;;-143.51;100.00
44309;BME280;30022;55.846;37.340;2023-02-05T14:16:30;47013.19;;;-143.51;100.00
44309;BME280;30022;55.846;37.340;2023-02-05T14:18:46;46997.38;;;-143.51;100.00
44309;BME280;30022;55.846;37.340;2023-02-05T14:24:01;46997.38;;;-143.51;100.00
44309;BME280;30022;55.846;37.340;2023-02-05T14:31:58;46963.81;;;-143.51;100.00
44309;BME280;30022;55.846;37.340;2023-02-05T14:34:27;47023.06;;;-143.51;100.00
44309;BME280;30022;55.846;37.340;2023-02-05T14:37:21;46946.03;;;-143.51;100.00
44309;BME280;30022;55.846;37.340;2023-02-05T14:39:48;46949.97;;;-143.51;100.00